sensor_id;sensor_type;location;lat;lon;timestamp;temperature;humidity
13198;DHT22;6664;52.514;13.440;2023-02-18T00:00:55;7.10;55.00
13198;DHT22;6664;52.514;13.440;2023-02-18T00:03:44;7.00;56.40
13198;DHT22;6664;52.514;13.440;2023-02-18T00:06:31;6.90;56.00
13198;DHT22;6664;52.514;13.440;2023-02-18T00:09:18;7.00;55.50
13198;DHT22;6664;52.514;13.440;2023-02-18T00:12:04;7.00;54.70
13198;DHT22;6664;52.514;13.440;2023-02-18T00:14:49;7.00;55.20
13198;DHT22;6664;52.514;13.440;2023-02-18T00:17:36;7.00;54.40
13198;DHT22;6664;52.514;13.440;2023-02-18T00:20:22;7.00;54.00
13198;DHT22;6664;52.514;13.440;2023-02-18T00:23:08;7.00;54.00
13198;DHT22;6664;52.514;13.440;2023-02-18T00:26:04;6.90;54.40
13198;DHT22;6664;52.514;13.440;2023-02-18T00:28:52;6.90;53.90
13198;DHT22;6664;52.514;13.440;2023-02-18T00:31:39;6.80;54.80
13198;DHT22;6664;52.514;13.440;2023-02-18T00:34:25;6.80;54.00
13198;DHT22;6664;52.514;13.440;2023-02-18T00:37:11;6.70;54.30
13198;DHT22;6664;52.514;13.440;2023-02-18T00:39:57;6.60;54.60
13198;DHT22;6664;52.514;13.440;2023-02-18T00:42:42;6.60;54.80
13198;DHT22;6664;52.514;13.440;2023-02-18T00:45:28;6.50;54.90
13198;DHT22;6664;52.514;13.440;2023-02-18T00:48:13;6.40;55.30
13198;DHT22;6664;52.514;13.440;2023-02-18T00:50:59;6.50;55.20
13198;DHT22;6664;52.514;13.440;2023-02-18T00:53:47;6.40;55.30
13198;DHT22;6664;52.514;13.440;2023-02-18T00:56:51;6.40;56.20
13198;DHT22;6664;52.514;13.440;2023-02-18T00:59:36;6.30;56.10
13198;DHT22;6664;52.514;13.440;2023-02-18T01:02:22;6.30;56.20
13198;DHT22;6664;52.514;13.440;2023-02-18T01:05:08;6.30;56.20
13198;DHT22;6664;52.514;13.440;2023-02-18T01:07:53;6.20;56.70
13198;DHT22;6664;52.514;13.440;2023-02-18T01:10:43;6.30;56.00
13198;DHT22;6664;52.514;13.440;2023-02-18T01:13:29;6.20;56.50
13198;DHT22;6664;52.514;13.440;2023-02-18T01:16:15;6.20;56.70
13198;DHT22;6664;52.514;13.440;2023-02-18T01:19:01;6.10;56.80
13198;DHT22;6664;52.514;13.440;2023-02-18T01:21:47;6.20;56.70
13198;DHT22;6664;52.514;13.440;2023-02-18T01:24:33;6.10;57.00
13198;DHT22;6664;52.514;13.440;2023-02-18T01:27:18;6.20;56.10
13198;DHT22;6664;52.514;13.440;2023-02-18T01:30:07;6.20;56.20
13198;DHT22;6664;52.514;13.440;2023-02-18T01:32:55;6.20;56.20
13198;DHT22;6664;52.514;13.440;2023-02-18T01:35:41;6.20;55.60
13198;DHT22;6664;52.514;13.440;2023-02-18T01:38:27;6.20;55.30
13198;DHT22;6664;52.514;13.440;2023-02-18T01:41:13;6.20;55.30
13198;DHT22;6664;52.514;13.440;2023-02-18T01:44:17;6.20;55.20
13198;DHT22;6664;52.514;13.440;2023-02-18T01:47:05;6.30;55.20
13198;DHT22;6664;52.514;13.440;2023-02-18T01:49:52;6.20;55.10
13198;DHT22;6664;52.514;13.440;2023-02-18T01:52:38;6.30;54.70
13198;DHT22;6664;52.514;13.440;2023-02-18T01:55:23;6.30;55.00
13198;DHT22;6664;52.514;13.440;2023-02-18T01:58:10;6.30;54.60
13198;DHT22;6664;52.514;13.440;2023-02-18T02:06:43;6.10;55.40
13198;DHT22;6664;52.514;13.440;2023-02-18T02:09:31;6.20;55.30
13198;DHT22;6664;52.514;13.440;2023-02-18T02:12:35;6.10;55.40
13198;DHT22;6664;52.514;13.440;2023-02-18T02:15:32;6.10;55.60
13198;DHT22;6664;52.514;13.440;2023-02-18T02:46:22;5.90;56.20
13198;DHT22;6664;52.514;13.440;2023-02-18T02:52:25;6.00;55.40
13198;DHT22;6664;52.514;13.440;2023-02-18T02:55:12;6.00;55.20
13198;DHT22;6664;52.514;13.440;2023-02-18T02:57:58;6.00;55.40
13198;DHT22;6664;52.514;13.440;2023-02-18T03:04:12;6.00;55.50
13198;DHT22;6664;52.514;13.440;2023-02-18T03:22:21;5.80;55.30
13198;DHT22;6664;52.514;13.440;2023-02-18T03:25:08;5.80;55.40
13198;DHT22;6664;52.514;13.440;2023-02-18T03:28:02;5.80;55.10
13198;DHT22;6664;52.514;13.440;2023-02-18T03:30:54;6.00;54.40
13198;DHT22;6664;52.514;13.440;2023-02-18T03:33:51;6.00;54.10
13198;DHT22;6664;52.514;13.440;2023-02-18T03:36:39;6.00;54.10
13198;DHT22;6664;52.514;13.440;2023-02-18T03:39:29;6.10;53.40
13198;DHT22;6664;52.514;13.440;2023-02-18T03:42:18;6.20;53.10
13198;DHT22;6664;52.514;13.440;2023-02-18T03:45:04;6.30;52.20
13198;DHT22;6664;52.514;13.440;2023-02-18T03:47:49;6.30;52.10
13198;DHT22;6664;52.514;13.440;2023-02-18T03:50:37;6.20;52.10
13198;DHT22;6664;52.514;13.440;2023-02-18T03:53:24;6.20;52.10
13198;DHT22;6664;52.514;13.440;2023-02-18T03:56:12;6.10;52.10
13198;DHT22;6664;52.514;13.440;2023-02-18T03:58:58;6.10;51.90
13198;DHT22;6664;52.514;13.440;2023-02-18T04:01:45;6.10;52.10
13198;DHT22;6664;52.514;13.440;2023-02-18T04:04:31;6.10;51.70
13198;DHT22;6664;52.514;13.440;2023-02-18T04:07:17;6.00;51.80
13198;DHT22;6664;52.514;13.440;2023-02-18T04:10:04;6.00;52.10
13198;DHT22;6664;52.514;13.440;2023-02-18T04:12:51;6.00;51.70
13198;DHT22;6664;52.514;13.440;2023-02-18T04:15:38;5.90;51.90
13198;DHT22;6664;52.514;13.440;2023-02-18T04:18:24;5.90;51.80
13198;DHT22;6664;52.514;13.440;2023-02-18T04:21:12;5.90;51.60
13198;DHT22;6664;52.514;13.440;2023-02-18T04:23:58;5.90;51.80
13198;DHT22;6664;52.514;13.440;2023-02-18T04:26:46;5.80;51.90
13198;DHT22;6664;52.514;13.440;2023-02-18T04:29:32;5.70;52.10
13198;DHT22;6664;52.514;13.440;2023-02-18T04:32:18;5.80;52.20
13198;DHT22;6664;52.514;13.440;2023-02-18T04:35:06;5.80;52.20
13198;DHT22;6664;52.514;13.440;2023-02-18T04:37:52;5.80;52.00
13198;DHT22;6664;52.514;13.440;2023-02-18T04:40:38;5.70;52.00
13198;DHT22;6664;52.514;13.440;2023-02-18T04:43:23;5.70;52.20
13198;DHT22;6664;52.514;13.440;2023-02-18T04:46:11;5.70;52.30
13198;DHT22;6664;52.514;13.440;2023-02-18T04:48:57;5.70;52.60
13198;DHT22;6664;52.514;13.440;2023-02-18T04:51:43;5.70;52.40
13198;DHT22;6664;52.514;13.440;2023-02-18T04:54:28;5.60;52.30
13198;DHT22;6664;52.514;13.440;2023-02-18T04:57:14;5.60;52.80
13198;DHT22;6664;52.514;13.440;2023-02-18T04:59:59;5.60;52.60
13198;DHT22;6664;52.514;13.440;2023-02-18T05:02:48;5.60;52.90
13198;DHT22;6664;52.514;13.440;2023-02-18T05:05:33;5.70;52.80
13198;DHT22;6664;52.514;13.440;2023-02-18T05:08:20;5.50;53.10
13198;DHT22;6664;52.514;13.440;2023-02-18T05:11:08;5.60;52.60
13198;DHT22;6664;52.514;13.440;2023-02-18T05:13:53;5.70;52.40
13198;DHT22;6664;52.514;13.440;2023-02-18T05:16:39;5.70;52.60
13198;DHT22;6664;52.514;13.440;2023-02-18T05:19:24;5.60;52.50
13198;DHT22;6664;52.514;13.440;2023-02-18T05:22:10;5.70;52.30
13198;DHT22;6664;52.514;13.440;2023-02-18T05:24:58;5.90;51.60
13198;DHT22;6664;52.514;13.440;2023-02-18T05:27:46;6.00;51.10
13198;DHT22;6664;52.514;13.440;2023-02-18T05:30:34;6.10;50.20
13198;DHT22;6664;52.514;13.440;2023-02-18T05:33:22;6.20;50.00
13198;DHT22;6664;52.514;13.440;2023-02-18T05:36:08;6.30;49.50
13198;DHT22;6664;52.514;13.440;2023-02-18T05:38:54;6.30;49.00
13198;DHT22;6664;52.514;13.440;2023-02-18T05:41:39;6.40;48.70
13198;DHT22;6664;52.514;13.440;2023-02-18T05:44:25;6.40;48.40
13198;DHT22;6664;52.514;13.440;2023-02-18T05:47:17;6.40;48.20
13198;DHT22;6664;52.514;13.440;2023-02-18T05:50:03;6.40;48.10
13198;DHT22;6664;52.514;13.440;2023-02-18T05:52:49;6.50;47.80
13198;DHT22;6664;52.514;13.440;2023-02-18T05:55:37;6.50;47.50
13198;DHT22;6664;52.514;13.440;2023-02-18T05:58:26;6.60;47.20
13198;DHT22;6664;52.514;13.440;2023-02-18T06:01:11;6.60;46.70
13198;DHT22;6664;52.514;13.440;2023-02-18T06:03:57;6.60;46.50
13198;DHT22;6664;52.514;13.440;2023-02-18T06:06:45;6.70;46.10
13198;DHT22;6664;52.514;13.440;2023-02-18T06:09:33;6.70;46.00
13198;DHT22;6664;52.514;13.440;2023-02-18T06:12:19;6.70;45.30
13198;DHT22;6664;52.514;13.440;2023-02-18T06:15:05;6.80;45.00
13198;DHT22;6664;52.514;13.440;2023-02-18T06:17:50;6.80;44.80
13198;DHT22;6664;52.514;13.440;2023-02-18T06:20:38;6.80;44.90
13198;DHT22;6664;52.514;13.440;2023-02-18T06:23:26;6.90;44.90
13198;DHT22;6664;52.514;13.440;2023-02-18T06:26:14;6.90;44.90
13198;DHT22;6664;52.514;13.440;2023-02-18T06:28:59;6.90;44.60
13198;DHT22;6664;52.514;13.440;2023-02-18T06:31:45;6.90;43.90
13198;DHT22;6664;52.514;13.440;2023-02-18T06:34:33;7.00;43.80
13198;DHT22;6664;52.514;13.440;2023-02-18T06:37:18;7.10;43.90
13198;DHT22;6664;52.514;13.440;2023-02-18T06:40:05;7.10;43.70
13198;DHT22;6664;52.514;13.440;2023-02-18T06:42:50;7.10;43.40
13198;DHT22;6664;52.514;13.440;2023-02-18T06:45:38;7.10;43.90
13198;DHT22;6664;52.514;13.440;2023-02-18T06:48:24;7.20;43.90
13198;DHT22;6664;52.514;13.440;2023-02-18T06:51:10;7.20;43.80
13198;DHT22;6664;52.514;13.440;2023-02-18T06:53:58;7.20;43.90
13198;DHT22;6664;52.514;13.440;2023-02-18T06:56:44;7.20;43.90
13198;DHT22;6664;52.514;13.440;2023-02-18T06:59:32;7.30;43.70
13198;DHT22;6664;52.514;13.440;2023-02-18T07:02:19;7.30;43.70
13198;DHT22;6664;52.514;13.440;2023-02-18T07:05:05;7.30;43.80
13198;DHT22;6664;52.514;13.440;2023-02-18T07:07:53;7.30;43.50
13198;DHT22;6664;52.514;13.440;2023-02-18T07:10:38;7.40;43.50
13198;DHT22;6664;52.514;13.440;2023-02-18T07:13:26;7.40;43.60
13198;DHT22;6664;52.514;13.440;2023-02-18T07:16:12;7.40;43.30
13198;DHT22;6664;52.514;13.440;2023-02-18T07:19:00;7.40;43.30
13198;DHT22;6664;52.514;13.440;2023-02-18T07:21:45;7.40;42.90
13198;DHT22;6664;52.514;13.440;2023-02-18T07:24:31;7.40;43.00
13198;DHT22;6664;52.514;13.440;2023-02-18T07:27:18;7.50;42.80
13198;DHT22;6664;52.514;13.440;2023-02-18T07:30:03;7.50;42.50
13198;DHT22;6664;52.514;13.440;2023-02-18T07:32:52;7.50;42.60
13198;DHT22;6664;52.514;13.440;2023-02-18T07:35:39;7.60;42.80
13198;DHT22;6664;52.514;13.440;2023-02-18T07:38:28;7.60;42.80
13198;DHT22;6664;52.514;13.440;2023-02-18T07:41:21;7.60;42.60
13198;DHT22;6664;52.514;13.440;2023-02-18T07:44:07;7.70;43.10
13198;DHT22;6664;52.514;13.440;2023-02-18T07:46:55;7.70;43.10
13198;DHT22;6664;52.514;13.440;2023-02-18T07:49:43;7.80;43.30
13198;DHT22;6664;52.514;13.440;2023-02-18T07:52:28;7.80;43.70
13198;DHT22;6664;52.514;13.440;2023-02-18T07:55:16;7.90;43.70
13198;DHT22;6664;52.514;13.440;2023-02-18T07:58:01;7.90;43.70
13198;DHT22;6664;52.514;13.440;2023-02-18T08:00:49;7.90;44.10
13198;DHT22;6664;52.514;13.440;2023-02-18T08:03:35;7.80;45.10
13198;DHT22;6664;52.514;13.440;2023-02-18T08:06:34;7.80;45.70
13198;DHT22;6664;52.514;13.440;2023-02-18T08:09:20;7.70;46.30
13198;DHT22;6664;52.514;13.440;2023-02-18T08:12:07;8.00;46.80
13198;DHT22;6664;52.514;13.440;2023-02-18T08:14:52;7.90;47.00
13198;DHT22;6664;52.514;13.440;2023-02-18T08:17:37;8.00;46.90
13198;DHT22;6664;52.514;13.440;2023-02-18T08:20:25;8.00;46.50
13198;DHT22;6664;52.514;13.440;2023-02-18T08:23:12;7.90;46.90
13198;DHT22;6664;52.514;13.440;2023-02-18T08:25:57;8.00;46.80
13198;DHT22;6664;52.514;13.440;2023-02-18T08:28:46;7.90;47.60
13198;DHT22;6664;52.514;13.440;2023-02-18T08:31:32;7.90;48.40
13198;DHT22;6664;52.514;13.440;2023-02-18T08:34:18;7.90;48.90
13198;DHT22;6664;52.514;13.440;2023-02-18T08:37:04;7.70;49.40
13198;DHT22;6664;52.514;13.440;2023-02-18T08:39:50;7.60;50.60
13198;DHT22;6664;52.514;13.440;2023-02-18T08:42:35;7.60;50.60
13198;DHT22;6664;52.514;13.440;2023-02-18T08:45:26;7.70;50.70
13198;DHT22;6664;52.514;13.440;2023-02-18T08:48:12;7.90;50.40
13198;DHT22;6664;52.514;13.440;2023-02-18T08:51:15;7.70;50.70
13198;DHT22;6664;52.514;13.440;2023-02-18T08:54:03;7.60;52.50
13198;DHT22;6664;52.514;13.440;2023-02-18T08:56:52;7.50;52.70
13198;DHT22;6664;52.514;13.440;2023-02-18T08:59:38;7.60;53.30
13198;DHT22;6664;52.514;13.440;2023-02-18T09:02:23;7.50;53.30
13198;DHT22;6664;52.514;13.440;2023-02-18T09:05:12;7.70;53.80
13198;DHT22;6664;52.514;13.440;2023-02-18T09:07:57;7.40;55.30
13198;DHT22;6664;52.514;13.440;2023-02-18T09:10:45;7.60;55.70
13198;DHT22;6664;52.514;13.440;2023-02-18T09:13:34;7.60;55.70
13198;DHT22;6664;52.514;13.440;2023-02-18T09:16:21;7.80;56.70
13198;DHT22;6664;52.514;13.440;2023-02-18T09:19:13;7.80;55.90
13198;DHT22;6664;52.514;13.440;2023-02-18T09:22:01;7.70;54.90
13198;DHT22;6664;52.514;13.440;2023-02-18T09:24:46;7.70;56.00
13198;DHT22;6664;52.514;13.440;2023-02-18T09:27:32;7.90;56.80
13198;DHT22;6664;52.514;13.440;2023-02-18T09:30:17;7.90;56.50
13198;DHT22;6664;52.514;13.440;2023-02-18T09:33:03;7.90;58.00
13198;DHT22;6664;52.514;13.440;2023-02-18T09:35:49;7.80;57.70
13198;DHT22;6664;52.514;13.440;2023-02-18T09:38:36;7.70;58.40
13198;DHT22;6664;52.514;13.440;2023-02-18T09:41:38;7.90;59.20
13198;DHT22;6664;52.514;13.440;2023-02-18T09:44:50;8.00;59.40
13198;DHT22;6664;52.514;13.440;2023-02-18T09:47:39;7.80;59.40
13198;DHT22;6664;52.514;13.440;2023-02-18T09:50:30;8.10;61.10
13198;DHT22;6664;52.514;13.440;2023-02-18T09:53:20;8.30;60.80
13198;DHT22;6664;52.514;13.440;2023-02-18T09:56:08;8.20;60.50
13198;DHT22;6664;52.514;13.440;2023-02-18T09:58:57;8.30;61.00
13198;DHT22;6664;52.514;13.440;2023-02-18T10:01:47;8.40;61.10
13198;DHT22;6664;52.514;13.440;2023-02-18T10:04:39;8.40;60.00
13198;DHT22;6664;52.514;13.440;2023-02-18T10:07:30;8.40;60.90
13198;DHT22;6664;52.514;13.440;2023-02-18T10:10:38;8.20;60.60
13198;DHT22;6664;52.514;13.440;2023-02-18T10:13:30;8.20;61.70
13198;DHT22;6664;52.514;13.440;2023-02-18T10:16:18;8.20;62.90
13198;DHT22;6664;52.514;13.440;2023-02-18T10:19:19;8.30;64.50
13198;DHT22;6664;52.514;13.440;2023-02-18T10:22:10;8.30;65.10
13198;DHT22;6664;52.514;13.440;2023-02-18T10:25:02;8.30;65.50
13198;DHT22;6664;52.514;13.440;2023-02-18T10:27:50;8.10;67.70
13198;DHT22;6664;52.514;13.440;2023-02-18T10:30:42;7.90;73.60
13198;DHT22;6664;52.514;13.440;2023-02-18T10:33:46;8.10;72.80
13198;DHT22;6664;52.514;13.440;2023-02-18T10:36:46;8.10;73.00
13198;DHT22;6664;52.514;13.440;2023-02-18T10:39:47;8.30;73.50
13198;DHT22;6664;52.514;13.440;2023-02-18T10:45:41;8.50;71.60
13198;DHT22;6664;52.514;13.440;2023-02-18T10:48:42;8.50;71.20
13198;DHT22;6664;52.514;13.440;2023-02-18T10:51:32;8.40;70.90
13198;DHT22;6664;52.514;13.440;2023-02-18T10:54:23;8.50;72.60
13198;DHT22;6664;52.514;13.440;2023-02-18T10:57:18;8.50;71.40
13198;DHT22;6664;52.514;13.440;2023-02-18T11:00:25;8.40;72.00
13198;DHT22;6664;52.514;13.440;2023-02-18T13:15:04;10.50;96.40
13198;DHT22;6664;52.514;13.440;2023-02-18T13:17:56;10.60;95.70
13198;DHT22;6664;52.514;13.440;2023-02-18T13:20:54;10.50;97.20
13198;DHT22;6664;52.514;13.440;2023-02-18T13:24:03;10.60;97.90
13198;DHT22;6664;52.514;13.440;2023-02-18T13:30:37;10.50;99.90
13198;DHT22;6664;52.514;13.440;2023-02-18T13:33:43;10.40;99.90
13198;DHT22;6664;52.514;13.440;2023-02-18T13:39:55;9.90;99.90
13198;DHT22;6664;52.514;13.440;2023-02-18T13:42:40;9.90;99.90
13198;DHT22;6664;52.514;13.440;2023-02-18T13:45:31;9.80;99.90
13198;DHT22;6664;52.514;13.440;2023-02-18T13:48:50;9.90;99.90
13198;DHT22;6664;52.514;13.440;2023-02-18T13:51:39;9.90;99.90
13198;DHT22;6664;52.514;13.440;2023-02-18T13:54:44;9.60;99.90
13198;DHT22;6664;52.514;13.440;2023-02-18T13:57:35;9.70;99.90
13198;DHT22;6664;52.514;13.440;2023-02-18T14:00:33;9.40;99.90
13198;DHT22;6664;52.514;13.440;2023-02-18T14:03:33;9.40;99.90
13198;DHT22;6664;52.514;13.440;2023-02-18T14:13:00;9.50;99.90
13198;DHT22;6664;52.514;13.440;2023-02-18T14:19:22;9.20;99.90
13198;DHT22;6664;52.514;13.440;2023-02-18T14:21:42;9.10;99.90
13198;DHT22;6664;52.514;13.440;2023-02-18T14:24:48;9.30;99.90
13198;DHT22;6664;52.514;13.440;2023-02-18T14:27:40;9.20;99.90
13198;DHT22;6664;52.514;13.440;2023-02-18T14:30:39;9.10;99.90
13198;DHT22;6664;52.514;13.440;2023-02-18T14:33:25;9.40;99.90
13198;DHT22;6664;52.514;13.440;2023-02-18T14:46:04;9.50;99.90
13198;DHT22;6664;52.514;13.440;2023-02-18T14:51:51;9.90;99.90
13198;DHT22;6664;52.514;13.440;2023-02-18T14:54:40;10.00;99.90
13198;DHT22;6664;52.514;13.440;2023-02-18T14:57:40;9.90;99.90
13198;DHT22;6664;52.514;13.440;2023-02-18T15:00:31;9.80;99.90
13198;DHT22;6664;52.514;13.440;2023-02-18T15:03:21;9.80;99.90
13198;DHT22;6664;52.514;13.440;2023-02-18T15:06:32;9.10;99.90
13198;DHT22;6664;52.514;13.440;2023-02-18T15:09:20;9.00;99.90
13198;DHT22;6664;52.514;13.440;2023-02-18T15:12:08;8.70;99.90
13198;DHT22;6664;52.514;13.440;2023-02-18T15:14:58;8.60;99.90
13198;DHT22;6664;52.514;13.440;2023-02-18T15:17:48;8.60;99.90
13198;DHT22;6664;52.514;13.440;2023-02-18T15:20:37;8.60;99.90
13198;DHT22;6664;52.514;13.440;2023-02-18T15:23:25;8.60;99.90
13198;DHT22;6664;52.514;13.440;2023-02-18T15:26:14;8.60;99.90
13198;DHT22;6664;52.514;13.440;2023-02-18T15:29:04;8.50;99.90
13198;DHT22;6664;52.514;13.440;2023-02-18T15:31:50;8.60;99.90
13198;DHT22;6664;52.514;13.440;2023-02-18T15:34:38;8.50;99.90
13198;DHT22;6664;52.514;13.440;2023-02-18T15:37:24;8.60;99.90
13198;DHT22;6664;52.514;13.440;2023-02-18T15:40:17;8.60;99.90
13198;DHT22;6664;52.514;13.440;2023-02-18T15:43:04;8.70;99.90
13198;DHT22;6664;52.514;13.440;2023-02-18T15:45:55;8.70;99.90
13198;DHT22;6664;52.514;13.440;2023-02-18T15:48:46;8.70;99.90
13198;DHT22;6664;52.514;13.440;2023-02-18T15:51:34;8.80;99.90
13198;DHT22;6664;52.514;13.440;2023-02-18T15:54:23;9.00;99.90
13198;DHT22;6664;52.514;13.440;2023-02-18T15:57:12;9.10;99.90
13198;DHT22;6664;52.514;13.440;2023-02-18T16:03:14;9.10;99.90
13198;DHT22;6664;52.514;13.440;2023-02-18T16:06:17;9.40;99.90
13198;DHT22;6664;52.514;13.440;2023-02-18T16:09:38;9.50;99.90
13198;DHT22;6664;52.514;13.440;2023-02-18T16:12:28;9.60;99.90
13198;DHT22;6664;52.514;13.440;2023-02-18T16:15:26;9.70;99.90
13198;DHT22;6664;52.514;13.440;2023-02-18T16:24:24;9.80;99.90
13198;DHT22;6664;52.514;13.440;2023-02-18T16:27:14;9.30;99.90
13198;DHT22;6664;52.514;13.440;2023-02-18T16:30:25;9.60;99.90
13198;DHT22;6664;52.514;13.440;2023-02-18T16:33:13;9.60;99.90
13198;DHT22;6664;52.514;13.440;2023-02-18T16:35:59;9.60;99.90
13198;DHT22;6664;52.514;13.440;2023-02-18T16:38:44;9.60;99.90
13198;DHT22;6664;52.514;13.440;2023-02-18T16:41:32;9.70;99.90
13198;DHT22;6664;52.514;13.440;2023-02-18T16:44:18;9.70;99.90
13198;DHT22;6664;52.514;13.440;2023-02-18T16:47:03;9.50;99.90
13198;DHT22;6664;52.514;13.440;2023-02-18T16:49:50;9.30;99.90
13198;DHT22;6664;52.514;13.440;2023-02-18T16:52:35;8.90;99.90
13198;DHT22;6664;52.514;13.440;2023-02-18T16:55:23;8.70;99.90
13198;DHT22;6664;52.514;13.440;2023-02-18T16:58:08;8.50;99.90
13198;DHT22;6664;52.514;13.440;2023-02-18T17:00:54;8.40;99.90
13198;DHT22;6664;52.514;13.440;2023-02-18T17:03:39;8.30;99.90
13198;DHT22;6664;52.514;13.440;2023-02-18T17:06:25;8.20;99.90
13198;DHT22;6664;52.514;13.440;2023-02-18T17:09:15;8.10;99.90
13198;DHT22;6664;52.514;13.440;2023-02-18T17:12:01;8.00;99.90
13198;DHT22;6664;52.514;13.440;2023-02-18T17:14:47;8.00;99.90
13198;DHT22;6664;52.514;13.440;2023-02-18T17:17:38;7.90;99.90
13198;DHT22;6664;52.514;13.440;2023-02-18T17:20:24;7.90;99.90
13198;DHT22;6664;52.514;13.440;2023-02-18T17:23:13;7.80;99.90
13198;DHT22;6664;52.514;13.440;2023-02-18T17:25:59;7.80;99.90
13198;DHT22;6664;52.514;13.440;2023-02-18T17:28:49;7.70;99.90
13198;DHT22;6664;52.514;13.440;2023-02-18T17:31:38;7.70;99.90
13198;DHT22;6664;52.514;13.440;2023-02-18T17:34:27;7.70;99.90
13198;DHT22;6664;52.514;13.440;2023-02-18T17:37:16;7.60;99.90
13198;DHT22;6664;52.514;13.440;2023-02-18T17:40:02;7.50;99.90
13198;DHT22;6664;52.514;13.440;2023-02-18T17:42:48;7.50;99.90
13198;DHT22;6664;52.514;13.440;2023-02-18T17:45:36;7.50;99.90
13198;DHT22;6664;52.514;13.440;2023-02-18T17:48:24;7.50;99.90
13198;DHT22;6664;52.514;13.440;2023-02-18T17:51:28;7.50;99.90
13198;DHT22;6664;52.514;13.440;2023-02-18T17:54:16;7.40;99.90
13198;DHT22;6664;52.514;13.440;2023-02-18T17:57:02;7.50;99.90
13198;DHT22;6664;52.514;13.440;2023-02-18T17:59:47;7.50;99.90
13198;DHT22;6664;52.514;13.440;2023-02-18T18:02:38;7.50;99.90
13198;DHT22;6664;52.514;13.440;2023-02-18T18:05:29;7.50;99.90
13198;DHT22;6664;52.514;13.440;2023-02-18T18:08:19;7.50;99.90
13198;DHT22;6664;52.514;13.440;2023-02-18T18:11:05;7.50;99.90
13198;DHT22;6664;52.514;13.440;2023-02-18T18:13:54;7.50;99.90
13198;DHT22;6664;52.514;13.440;2023-02-18T18:16:39;7.40;99.90
13198;DHT22;6664;52.514;13.440;2023-02-18T18:19:27;7.40;99.90
13198;DHT22;6664;52.514;13.440;2023-02-18T18:22:17;7.40;99.90
13198;DHT22;6664;52.514;13.440;2023-02-18T18:28:09;7.40;99.90
13198;DHT22;6664;52.514;13.440;2023-02-18T18:30:55;7.40;99.90
13198;DHT22;6664;52.514;13.440;2023-02-18T18:33:50;7.40;99.90
13198;DHT22;6664;52.514;13.440;2023-02-18T18:36:38;7.40;99.90
13198;DHT22;6664;52.514;13.440;2023-02-18T18:39:24;7.40;99.90
13198;DHT22;6664;52.514;13.440;2023-02-18T18:42:11;7.40;99.90
13198;DHT22;6664;52.514;13.440;2023-02-18T18:44:57;7.30;99.90
13198;DHT22;6664;52.514;13.440;2023-02-18T18:47:43;7.30;99.90
13198;DHT22;6664;52.514;13.440;2023-02-18T18:50:32;7.20;99.90
13198;DHT22;6664;52.514;13.440;2023-02-18T18:53:35;7.20;99.90
13198;DHT22;6664;52.514;13.440;2023-02-18T18:56:21;7.10;99.90
13198;DHT22;6664;52.514;13.440;2023-02-18T18:59:26;7.10;99.90
13198;DHT22;6664;52.514;13.440;2023-02-18T19:02:15;7.00;99.90
13198;DHT22;6664;52.514;13.440;2023-02-18T19:05:02;7.00;99.90
13198;DHT22;6664;52.514;13.440;2023-02-18T19:07:48;7.00;99.90
13198;DHT22;6664;52.514;13.440;2023-02-18T19:10:42;7.00;99.90
13198;DHT22;6664;52.514;13.440;2023-02-18T19:13:31;6.90;99.90
13198;DHT22;6664;52.514;13.440;2023-02-18T19:16:21;6.90;99.90
13198;DHT22;6664;52.514;13.440;2023-02-18T19:19:11;6.90;99.90
13198;DHT22;6664;52.514;13.440;2023-02-18T19:21:57;6.80;99.90
13198;DHT22;6664;52.514;13.440;2023-02-18T19:24:42;6.90;99.90
13198;DHT22;6664;52.514;13.440;2023-02-18T19:27:28;6.90;99.90
13198;DHT22;6664;52.514;13.440;2023-02-18T19:30:25;6.80;99.90
13198;DHT22;6664;52.514;13.440;2023-02-18T19:33:14;6.80;99.90
13198;DHT22;6664;52.514;13.440;2023-02-18T19:36:03;6.80;99.90
13198;DHT22;6664;52.514;13.440;2023-02-18T19:38:49;6.80;99.90
13198;DHT22;6664;52.514;13.440;2023-02-18T19:41:35;6.80;99.90
13198;DHT22;6664;52.514;13.440;2023-02-18T19:44:21;6.80;99.90
13198;DHT22;6664;52.514;13.440;2023-02-18T19:47:06;6.80;99.90
13198;DHT22;6664;52.514;13.440;2023-02-18T19:49:53;6.80;99.90
13198;DHT22;6664;52.514;13.440;2023-02-18T19:52:40;6.80;99.90
13198;DHT22;6664;52.514;13.440;2023-02-18T19:55:25;6.80;99.90
13198;DHT22;6664;52.514;13.440;2023-02-18T19:58:11;6.80;99.90
13198;DHT22;6664;52.514;13.440;2023-02-18T20:00:59;6.70;99.50
13198;DHT22;6664;52.514;13.440;2023-02-18T20:03:45;6.70;98.60
13198;DHT22;6664;52.514;13.440;2023-02-18T20:06:31;6.70;96.00
13198;DHT22;6664;52.514;13.440;2023-02-18T20:09:19;6.80;94.60
13198;DHT22;6664;52.514;13.440;2023-02-18T20:12:05;6.80;90.40
13198;DHT22;6664;52.514;13.440;2023-02-18T20:14:52;6.70;89.20
13198;DHT22;6664;52.514;13.440;2023-02-18T20:17:40;6.70;88.90
13198;DHT22;6664;52.514;13.440;2023-02-18T20:20:25;6.70;85.70
13198;DHT22;6664;52.514;13.440;2023-02-18T20:23:12;6.70;84.20
13198;DHT22;6664;52.514;13.440;2023-02-18T20:25:57;6.80;82.70
13198;DHT22;6664;52.514;13.440;2023-02-18T20:28:47;6.70;82.50
13198;DHT22;6664;52.514;13.440;2023-02-18T20:31:34;6.70;81.00
13198;DHT22;6664;52.514;13.440;2023-02-18T20:34:20;6.70;79.80
13198;DHT22;6664;52.514;13.440;2023-02-18T20:37:08;6.70;79.60
13198;DHT22;6664;52.514;13.440;2023-02-18T20:39:53;6.70;80.20
13198;DHT22;6664;52.514;13.440;2023-02-18T20:42:39;6.70;79.90
13198;DHT22;6664;52.514;13.440;2023-02-18T20:45:26;6.70;80.40
13198;DHT22;6664;52.514;13.440;2023-02-18T20:48:12;6.60;79.20
13198;DHT22;6664;52.514;13.440;2023-02-18T20:51:05;6.60;79.20
13198;DHT22;6664;52.514;13.440;2023-02-18T20:53:51;6.60;79.50
13198;DHT22;6664;52.514;13.440;2023-02-18T20:56:37;6.60;81.10
13198;DHT22;6664;52.514;13.440;2023-02-18T20:59:24;6.60;80.60
13198;DHT22;6664;52.514;13.440;2023-02-18T21:02:14;6.60;79.30
13198;DHT22;6664;52.514;13.440;2023-02-18T21:05:00;6.60;80.40
13198;DHT22;6664;52.514;13.440;2023-02-18T21:07:46;6.60;80.90
13198;DHT22;6664;52.514;13.440;2023-02-18T21:10:38;6.60;79.50
13198;DHT22;6664;52.514;13.440;2023-02-18T21:13:27;6.60;78.90
13198;DHT22;6664;52.514;13.440;2023-02-18T21:16:16;6.60;78.00
13198;DHT22;6664;52.514;13.440;2023-02-18T21:19:03;6.60;78.60
13198;DHT22;6664;52.514;13.440;2023-02-18T21:21:48;6.60;78.20
13198;DHT22;6664;52.514;13.440;2023-02-18T21:24:34;6.60;77.90
13198;DHT22;6664;52.514;13.440;2023-02-18T21:27:19;6.60;78.60
13198;DHT22;6664;52.514;13.440;2023-02-18T21:30:05;6.60;78.00
13198;DHT22;6664;52.514;13.440;2023-02-18T21:32:54;6.50;77.70
13198;DHT22;6664;52.514;13.440;2023-02-18T21:35:40;6.60;77.00
13198;DHT22;6664;52.514;13.440;2023-02-18T21:38:27;6.50;77.00
13198;DHT22;6664;52.514;13.440;2023-02-18T21:41:19;6.50;76.60
13198;DHT22;6664;52.514;13.440;2023-02-18T21:44:05;6.50;75.80
13198;DHT22;6664;52.514;13.440;2023-02-18T21:46:53;6.50;75.80
13198;DHT22;6664;52.514;13.440;2023-02-18T21:49:39;6.50;75.70
13198;DHT22;6664;52.514;13.440;2023-02-18T21:52:27;6.50;75.60
13198;DHT22;6664;52.514;13.440;2023-02-18T21:55:12;6.50;73.90